createdAt,value
2023-02-05T00:04:49.360Z,38
2023-02-05T00:09:49.423Z,0
2023-02-05T00:14:49.640Z,0
2023-02-05T00:19:49.635Z,0
2023-02-05T00:24:49.700Z,0
2023-02-05T00:29:49.849Z,0
2023-02-05T00:34:49.563Z,0
2023-02-05T00:39:49.601Z,0
2023-02-05T00:44:49.601Z,0
2023-02-05T00:49:49.573Z,0
2023-02-05T00:54:49.756Z,0
2023-02-05T00:59:49.503Z,0
2023-02-05T01:04:50.249Z,0
2023-02-05T01:09:49.321Z,0
2023-02-05T01:14:49.601Z,0
2023-02-05T01:19:49.316Z,0
2023-02-05T01:24:49.747Z,0
2023-02-05T01:29:49.342Z,0
2023-02-05T01:34:49.176Z,0
2023-02-05T01:39:49.808Z,0
2023-02-05T01:45:32.041Z,0
2023-02-05T01:49:49.384Z,0
2023-02-05T01:54:49.363Z,0
2023-02-05T01:59:49.565Z,38
2023-02-05T02:04:49.366Z,0
2023-02-05T02:09:49.418Z,0
2023-02-05T02:14:51.712Z,0
2023-02-05T02:19:52.609Z,0
2023-02-05T02:24:59.845Z,0
2023-02-05T02:29:52.917Z,0
2023-02-05T02:34:49.341Z,0
2023-02-05T02:39:49.554Z,0
2023-02-05T02:44:49.198Z,0
2023-02-05T02:49:49.485Z,38
2023-02-05T02:54:49.181Z,38
2023-02-05T02:59:49.185Z,38
2023-02-05T03:04:49.424Z,38
2023-02-05T03:09:51.525Z,38
2023-02-05T03:14:50.542Z,38
2023-02-05T03:19:49.353Z,38
2023-02-05T03:24:49.937Z,38
2023-02-05T03:29:49.369Z,38
2023-02-05T03:34:49.186Z,38
2023-02-05T03:39:54.844Z,38
2023-02-05T03:44:49.335Z,38
2023-02-05T03:49:52.441Z,38
2023-02-05T03:54:52.016Z,38
2023-02-05T03:59:49.270Z,38
2023-02-05T04:04:49.271Z,38
2023-02-05T04:09:49.432Z,38
2023-02-05T04:14:49.561Z,38
2023-02-05T04:19:49.111Z,38
2023-02-05T04:24:49.274Z,38
2023-02-05T04:29:49.703Z,38
2023-02-05T04:34:49.305Z,38
2023-02-05T04:39:49.078Z,38
2023-02-05T04:44:49.304Z,38
2023-02-05T04:49:49.145Z,38
2023-02-05T04:54:49.518Z,38
2023-02-05T04:59:49.281Z,38
2023-02-05T05:04:49.429Z,38
2023-02-05T05:09:50.518Z,38
2023-02-05T05:14:49.176Z,38
2023-02-05T05:19:49.151Z,38
2023-02-05T05:24:49.271Z,38
2023-02-05T05:29:49.285Z,38
2023-02-05T05:34:49.238Z,38
2023-02-05T05:39:49.262Z,38
2023-02-05T05:44:49.206Z,38
2023-02-05T05:49:49.337Z,38
2023-02-05T05:54:49.276Z,38
2023-02-05T05:59:48.993Z,38
2023-02-05T06:04:49.197Z,38
2023-02-05T06:09:48.966Z,38
2023-02-05T06:14:49.671Z,38
2023-02-05T06:19:49.190Z,38
2023-02-05T06:24:49.255Z,38
2023-02-05T06:29:49.398Z,38
2023-02-05T06:34:49.441Z,38
2023-02-05T06:39:49.222Z,38
2023-02-05T06:44:49.317Z,38
2023-02-05T06:49:49.199Z,38
2023-02-05T06:54:48.960Z,38
2023-02-05T06:59:48.927Z,38
2023-02-05T07:04:49.048Z,38
2023-02-05T07:09:49.126Z,38
2023-02-05T07:14:49.288Z,38
2023-02-05T07:19:49.287Z,38
2023-02-05T07:24:49.138Z,38
2023-02-05T07:29:49.286Z,38
2023-02-05T07:34:49.317Z,38
2023-02-05T07:39:49.115Z,38
2023-02-05T07:44:49.038Z,38
2023-02-05T07:49:49.388Z,38
2023-02-05T07:54:49.136Z,46
2023-02-05T07:59:49.074Z,46
2023-02-05T08:04:49.193Z,45
2023-02-05T08:09:48.939Z,45
2023-02-05T08:14:49.539Z,45
2023-02-05T08:19:49.559Z,44
2023-02-05T08:24:49.068Z,43
2023-02-05T08:29:48.996Z,43
2023-02-05T08:34:49.482Z,89.7
2023-02-05T08:39:49.182Z,89.9
2023-02-05T08:44:49.404Z,88.7
2023-02-05T08:49:49.132Z,87.9
2023-02-05T08:54:49.134Z,87.2
2023-02-05T08:59:49.263Z,86.3
2023-02-05T09:04:50.300Z,86
2023-02-05T09:09:49.065Z,85.4
2023-02-05T09:14:48.918Z,85
2023-02-05T09:19:49.196Z,84.9
2023-02-05T09:24:49.100Z,85
2023-02-05T09:29:49.044Z,85.2
2023-02-05T09:34:48.853Z,84
2023-02-05T09:40:19.660Z,83.6
2023-02-05T09:44:48.868Z,83.5
2023-02-05T09:49:48.881Z,83.2
2023-02-05T09:54:48.936Z,83.1
2023-02-05T09:59:49.033Z,82.5
2023-02-05T10:04:48.931Z,82.6
2023-02-05T10:10:08.934Z,80.9
2023-02-05T10:14:55.832Z,81.3
2023-02-05T10:19:54.951Z,80.5
2023-02-05T10:24:48.857Z,80.7
2023-02-05T10:29:48.909Z,80.7
2023-02-05T10:34:54.681Z,80.7
2023-02-05T10:39:49.054Z,80.5
2023-02-05T10:44:48.989Z,80.7
2023-02-05T10:49:49.041Z,80.1
2023-02-05T10:54:49.183Z,79.9
2023-02-05T10:59:48.787Z,80.4
2023-02-05T11:04:49.022Z,79.2
2023-02-05T11:09:48.796Z,78.2
2023-02-05T11:14:49.031Z,78.1
2023-02-05T11:19:51.382Z,78.2
2023-02-05T11:24:48.976Z,78.5
2023-02-05T11:29:48.965Z,78.1
2023-02-05T11:34:48.763Z,77.7
2023-02-05T11:39:51.402Z,77.2
2023-02-05T11:44:50.303Z,77
2023-02-05T11:49:48.788Z,76.8
2023-02-05T11:54:48.748Z,76.1
2023-02-05T11:59:48.932Z,75.2
2023-02-05T12:04:50.000Z,74
2023-02-05T12:09:48.788Z,73
2023-02-05T12:14:53.065Z,71.4
2023-02-05T12:19:52.056Z,70.7
2023-02-05T12:24:48.946Z,71.6
2023-02-05T12:29:48.883Z,71.6
2023-02-05T12:34:56.061Z,70.4
2023-02-05T12:39:51.513Z,69.9
2023-02-05T12:44:49.057Z,70.3
2023-02-05T12:49:56.243Z,68.9
2023-02-05T12:54:54.293Z,68.8
2023-02-05T12:59:48.936Z,69.2
2023-02-05T13:04:51.097Z,68.8
2023-02-05T13:09:48.750Z,70.9
2023-02-05T13:14:54.628Z,70.9
2023-02-05T13:19:51.179Z,71.2
2023-02-05T13:24:48.628Z,72.2
2023-02-05T13:29:48.858Z,72.2
2023-02-05T13:34:48.943Z,73
2023-02-05T13:39:49.003Z,73
2023-02-05T13:44:48.970Z,74.2
2023-02-05T13:49:48.696Z,74
2023-02-05T13:55:22.002Z,73.2
2023-02-05T13:59:48.912Z,74.4
2023-02-05T14:04:48.680Z,73.7
2023-02-05T14:09:50.791Z,73.9
2023-02-05T14:14:48.958Z,74
2023-02-05T14:19:52.155Z,73.7
2023-02-05T14:24:49.127Z,75.1
2023-02-05T14:29:48.883Z,75.2
2023-02-05T14:34:56.398Z,75.5
2023-02-05T14:39:50.388Z,76.1
2023-02-05T14:44:48.934Z,76
2023-02-05T14:49:48.837Z,76.4
2023-02-05T14:54:48.574Z,77
2023-02-05T14:59:48.738Z,78.2
2023-02-05T15:04:49.531Z,78.4
2023-02-05T15:09:51.209Z,77.8
2023-02-05T15:14:50.270Z,77.7
2023-02-05T15:19:50.366Z,77.2
2023-02-05T15:24:49.790Z,78.6
2023-02-05T15:29:50.879Z,78.9
2023-02-05T15:34:50.390Z,79.3
2023-02-05T15:39:50.945Z,80.3
2023-02-05T15:44:49.069Z,81.6
2023-02-05T15:49:50.449Z,82.3
2023-02-05T15:54:48.857Z,83.3
2023-02-05T15:59:49.293Z,84.5
2023-02-05T16:04:53.298Z,84.4
2023-02-05T16:09:48.624Z,84.6
2023-02-05T16:14:48.900Z,85.4
2023-02-05T16:19:50.725Z,85.7
2023-02-05T16:24:48.697Z,86.4
2023-02-05T16:29:50.527Z,86.5
2023-02-05T16:34:48.444Z,86.8
2023-02-05T16:39:50.689Z,87.5
2023-02-05T16:44:48.796Z,87.4
2023-02-05T16:49:48.717Z,88.2
2023-02-05T16:54:48.734Z,88.6
2023-02-05T16:59:48.749Z,87.6
2023-02-05T17:04:50.471Z,89
2023-02-05T17:09:48.653Z,88
2023-02-05T17:14:51.856Z,88.4
2023-02-05T17:19:48.503Z,89.3
2023-02-05T17:24:48.537Z,89.7
2023-02-05T17:29:48.729Z,40
2023-02-05T17:34:48.635Z,40
2023-02-05T17:39:48.581Z,89.7
2023-02-05T17:44:49.537Z,89.9
2023-02-05T17:49:48.618Z,40
2023-02-05T17:54:48.615Z,40
2023-02-05T17:59:48.586Z,40
2023-02-05T18:04:48.894Z,89.8
2023-02-05T18:09:48.710Z,89.4
2023-02-05T18:14:48.695Z,40
2023-02-05T18:19:48.820Z,89.8
2023-02-05T18:24:48.919Z,40
2023-02-05T18:29:48.494Z,40
2023-02-05T18:34:48.832Z,40
2023-02-05T18:39:49.046Z,40
2023-02-05T18:44:48.929Z,40
2023-02-05T18:49:48.449Z,40
2023-02-05T18:54:48.750Z,40
2023-02-05T18:59:48.474Z,40
2023-02-05T19:04:48.783Z,40
2023-02-05T19:09:48.946Z,41
2023-02-05T19:14:48.441Z,41
2023-02-05T19:19:48.506Z,41
2023-02-05T19:24:48.591Z,41
2023-02-05T19:29:48.457Z,41
2023-02-05T19:34:48.448Z,41
2023-02-05T19:39:48.797Z,41
2023-02-05T19:44:48.379Z,41
2023-02-05T19:49:48.692Z,41
2023-02-05T19:54:48.607Z,41
2023-02-05T19:59:48.626Z,41
2023-02-05T20:04:48.585Z,41
2023-02-05T20:09:48.295Z,41
2023-02-05T20:14:48.426Z,41
2023-02-05T20:19:48.489Z,41
2023-02-05T20:24:48.352Z,41
2023-02-05T20:29:48.483Z,41
2023-02-05T20:34:48.689Z,46
2023-02-05T20:39:48.437Z,47
2023-02-05T20:44:48.575Z,47
2023-02-05T20:49:48.472Z,47
2023-02-05T20:54:48.575Z,47
2023-02-05T20:59:48.634Z,47
2023-02-05T21:04:49.144Z,48
2023-02-05T21:09:48.551Z,48
2023-02-05T21:14:48.489Z,48
2023-02-05T21:19:48.616Z,48
2023-02-05T21:24:48.328Z,48
2023-02-05T21:29:48.357Z,48
2023-02-05T21:34:48.730Z,48
2023-02-05T21:39:50.878Z,48
2023-02-05T21:44:48.563Z,48
2023-02-05T21:49:48.218Z,48
2023-02-05T21:54:48.641Z,48
2023-02-05T21:59:48.651Z,48
2023-02-05T22:04:48.223Z,48
2023-02-05T22:09:48.412Z,48
2023-02-05T22:14:48.239Z,48
2023-02-05T22:19:48.243Z,48
2023-02-05T22:24:48.240Z,48
2023-02-05T22:29:48.343Z,48
2023-02-05T22:34:48.683Z,48
2023-02-05T22:39:48.530Z,48
2023-02-05T22:44:48.589Z,48
2023-02-05T22:49:48.467Z,48
2023-02-05T22:54:48.736Z,48
2023-02-05T22:59:48.500Z,48
2023-02-05T23:04:48.815Z,48
2023-02-05T23:09:48.291Z,48
2023-02-05T23:14:48.153Z,48
2023-02-05T23:19:49.687Z,48
2023-02-05T23:24:48.466Z,48
2023-02-05T23:29:48.546Z,48
2023-02-05T23:34:48.412Z,48
2023-02-05T23:39:48.121Z,48
2023-02-05T23:44:48.341Z,48
2023-02-05T23:49:48.314Z,48
2023-02-05T23:54:48.815Z,48
2023-02-05T23:59:48.557Z,48
